Time;durP1;ratioP1;P1;durP2;ratioP2;P2;SDS_P1;SDS_P2;PMS_P1;PMS_P2;Temp;Humidity;BMP_temperature;BMP_pressure;BME280_temperature;BME280_humidity;BME280_pressure;Samples;Min_cycle;Max_cycle;Signal;HPM_P1;HPM_P2
2023/10/08 00:01:19;;;;;;;2.75;0.82;;;19.00;55.20;;;;;;5071006;28;20024;-80
2023/10/08 00:03:53;;;;;;;3.38;0.80;;;19.10;54.70;;;;;;5074883;28;20029;-79
2023/10/08 00:06:21;;;;;;;3.72;0.90;;;19.20;53.90;;;;;;5076407;28;20029;-86
2023/10/08 00:08:50;;;;;;;3.38;1.15;;;19.30;52.50;;;;;;5075693;28;20025;-81
2023/10/08 00:11:18;;;;;;;2.05;0.80;;;19.30;52.90;;;;;;5066486;28;20028;-79
2023/10/08 00:13:48;;;;;;;4.03;0.98;;;19.30;52.20;;;;;;5074386;28;20387;-84
2023/10/08 00:16:16;;;;;;;2.65;0.80;;;19.40;52.90;;;;;;5067210;28;20086;-80
2023/10/08 00:18:51;;;;;;;2.67;0.75;;;19.60;52.70;;;;;;5064309;28;20439;-79
2023/10/08 00:21:24;;;;;;;3.08;0.85;;;19.70;52.00;;;;;;5061880;28;20454;-85
2023/10/08 00:23:59;;;;;;;2.22;0.80;;;19.70;51.40;;;;;;5071211;28;20067;-84
2023/10/08 00:26:29;;;;;;;5.75;1.33;;;19.80;52.00;;;;;;5058097;28;20039;-80
2023/10/08 00:28:59;;;;;;;3.40;1.00;;;19.80;51.80;;;;;;5053359;28;20025;-78
2023/10/08 00:31:40;;;;;;;4.38;1.20;;;19.90;51.60;;;;;;5053776;28;20029;-83
2023/10/08 00:34:11;;;;;;;2.38;0.90;;;20.00;51.90;;;;;;5064534;28;20031;-79
2023/10/08 00:36:45;;;;;;;5.32;1.00;;;20.20;51.50;;;;;;5072156;28;20060;-80
2023/10/08 00:39:14;;;;;;;2.25;0.88;;;20.30;50.90;;;;;;5060089;28;20071;-81
2023/10/08 00:41:47;;;;;;;3.05;0.85;;;20.60;49.80;;;;;;5061652;28;20108;-81
2023/10/08 00:44:22;;;;;;;4.47;1.20;;;20.80;49.10;;;;;;5062485;28;20557;-83
2023/10/08 00:46:50;;;;;;;3.47;0.98;;;20.90;48.60;;;;;;5068970;28;20511;-77
2023/10/08 00:54:34;;;;;;;3.03;1.10;;;21.60;46.20;;;;;;5062313;28;20495;-86
2023/10/08 00:57:04;;;;;;;3.00;0.95;;;21.90;46.50;;;;;;5065404;28;20028;-81
2023/10/08 00:59:45;;;;;;;3.60;0.90;;;22.30;46.20;;;;;;5062015;28;20029;-78
2023/10/08 01:02:19;;;;;;;4.55;1.02;;;22.40;45.60;;;;;;5070595;28;20125;-80
2023/10/08 01:04:49;;;;;;;2.83;0.85;;;22.80;44.40;;;;;;5076079;28;20024;-85
2023/10/08 01:07:18;;;;;;;2.55;1.25;;;22.90;44.40;;;;;;5060895;28;20021;-85
2023/10/08 01:09:58;;;;;;;2.10;1.00;;;22.90;43.10;;;;;;5067717;28;20462;-75
2023/10/08 01:12:35;;;;;;;3.42;1.00;;;22.80;43.50;;;;;;5056237;28;20029;-80
2023/10/08 01:17:58;;;;;;;6.13;1.45;;;22.70;44.90;;;;;;5061034;28;20031;-78
2023/10/08 01:20:36;;;;;;;4.18;1.30;;;22.50;44.20;;;;;;5073275;28;20037;-78
2023/10/08 01:23:20;;;;;;;2.53;1.30;;;22.30;44.60;;;;;;5071521;28;20083;-80
2023/10/08 01:25:57;;;;;;;2.30;1.00;;;22.10;44.60;;;;;;5060830;28;20036;-80
2023/10/08 01:28:29;;;;;;;4.38;1.60;;;21.80;45.00;;;;;;5061548;28;20036;-79
2023/10/08 01:31:00;;;;;;;3.72;1.27;;;21.70;46.40;;;;;;5064534;28;20037;-77
2023/10/08 01:33:37;;;;;;;4.53;1.25;;;21.50;46.70;;;;;;5071096;28;20099;-81
2023/10/08 01:36:08;;;;;;;8.65;1.52;;;21.30;47.60;;;;;;5070916;28;20032;-83
2023/10/08 01:38:35;;;;;;;3.05;1.08;;;21.20;48.30;;;;;;5077278;28;20041;-77
2023/10/08 01:41:40;;;;;;;2.75;1.15;;;20.90;48.80;;;;;;5073541;28;20097;-78
2023/10/08 01:43:58;;;;;;;4.88;1.45;;;20.70;49.30;;;;;;5074091;28;20104;-81
2023/10/08 01:46:27;;;;;;;4.53;1.38;;;20.80;49.90;;;;;;5069162;28;20032;-80
2023/10/08 01:49:04;;;;;;;5.05;1.40;;;20.90;49.80;;;;;;5064165;28;20023;-77
2023/10/08 01:51:39;;;;;;;4.45;1.42;;;21.10;49.00;;;;;;5062752;28;20040;-79
2023/10/08 01:54:11;;;;;;;2.60;1.00;;;21.20;49.40;;;;;;5065761;28;20028;-79
2023/10/08 01:56:42;;;;;;;4.40;1.33;;;21.30;49.10;;;;;;5057321;28;20036;-79
2023/10/08 01:59:15;;;;;;;4.15;1.20;;;21.30;48.80;;;;;;5069115;28;20036;-80
2023/10/08 02:01:45;;;;;;;3.38;1.20;;;21.30;48.70;;;;;;5060197;28;20103;-79
2023/10/08 02:04:12;;;;;;;7.28;1.40;;;21.30;48.90;;;;;;5061282;28;20021;-78
2023/10/08 02:06:40;;;;;;;3.00;0.93;;;21.30;50.00;;;;;;5070711;28;20036;-77
2023/10/08 02:09:08;;;;;;;2.85;1.50;;;21.20;50.30;;;;;;5073584;28;20108;-78
2023/10/08 02:11:53;;;;;;;6.65;1.40;;;21.20;50.20;;;;;;5077060;28;20108;-82
2023/10/08 02:14:22;;;;;;;4.85;1.30;;;21.10;50.30;;;;;;5076365;28;20028;-78
2023/10/08 02:16:55;;;;;;;2.35;0.98;;;21.10;50.50;;;;;;5074464;28;20027;-78
2023/10/08 02:19:29;;;;;;;5.32;1.33;;;21.00;50.70;;;;;;5074279;28;20033;-86
2023/10/08 02:21:58;;;;;;;4.03;1.02;;;20.90;50.80;;;;;;5068515;28;20023;-78
2023/10/08 02:24:29;;;;;;;5.07;1.10;;;21.00;50.90;;;;;;5072548;28;20569;-78
2023/10/08 02:26:59;;;;;;;2.70;0.95;;;20.90;51.00;;;;;;5072239;28;20047;-78
2023/10/08 02:29:29;;;;;;;3.13;1.15;;;20.90;51.20;;;;;;5081352;28;20115;-81
2023/10/08 02:31:58;;;;;;;4.15;1.20;;;20.90;51.60;;;;;;5097747;28;20020;-79
2023/10/08 02:34:26;;;;;;;4.45;1.10;;;21.10;51.70;;;;;;5067407;28;20056;-81
2023/10/08 02:36:56;;;;;;;6.22;1.70;;;21.30;51.40;;;;;;5073368;28;20024;-85
2023/10/08 02:39:27;;;;;;;4.25;1.13;;;21.50;51.20;;;;;;5077394;28;20140;-82
2023/10/08 02:41:58;;;;;;;2.05;1.15;;;21.60;49.90;;;;;;5077546;28;20086;-78
2023/10/08 02:44:27;;;;;;;2.20;1.10;;;21.70;49.80;;;;;;5060173;28;20017;-85
2023/10/08 02:46:54;;;;;;;4.07;1.40;;;21.80;49.80;;;;;;5071692;28;20025;-77
2023/10/08 02:49:23;;;;;;;3.55;1.02;;;21.90;49.30;;;;;;5075160;28;20105;-78
2023/10/08 02:51:53;;;;;;;6.65;1.20;;;21.90;49.70;;;;;;5065870;28;20037;-82
2023/10/08 02:54:31;;;;;;;4.05;1.08;;;22.00;49.30;;;;;;5074946;28;20416;-78
2023/10/08 02:57:03;;;;;;;2.78;1.10;;;22.10;49.50;;;;;;5073360;28;20028;-78
2023/10/08 02:59:40;;;;;;;2.97;0.90;;;22.30;49.00;;;;;;5074297;28;20028;-79
2023/10/08 03:02:18;;;;;;;2.67;0.80;;;22.40;48.20;;;;;;5064660;28;20017;-86
2023/10/08 03:04:46;;;;;;;4.15;1.30;;;22.50;47.80;;;;;;5060021;28;20025;-85
2023/10/08 03:07:21;;;;;;;4.68;1.10;;;22.60;47.30;;;;;;5068734;28;20441;-85
2023/10/08 03:09:50;;;;;;;3.53;1.00;;;22.60;47.10;;;;;;5069547;28;20031;-89
2023/10/08 03:12:18;;;;;;;3.08;1.15;;;22.70;47.30;;;;;;5073210;28;20054;-88
2023/10/08 03:15:01;;;;;;;4.80;1.20;;;22.80;46.20;;;;;;5072786;28;20039;-78
2023/10/08 03:17:29;;;;;;;3.42;1.10;;;22.80;46.50;;;;;;5072968;28;20099;-79
2023/10/08 03:20:27;;;;;;;4.82;1.02;;;23.10;46.00;;;;;;5070988;28;20055;-77
2023/10/08 03:22:45;;;;;;;3.15;0.90;;;23.10;45.10;;;;;;5070665;28;20033;-80
2023/10/08 03:25:19;;;;;;;3.80;1.08;;;23.10;45.70;;;;;;5071891;28;20029;-78
2023/10/08 03:27:48;;;;;;;3.50;0.90;;;23.20;45.50;;;;;;5058678;28;20032;-78
2023/10/08 03:30:16;;;;;;;5.95;1.05;;;23.20;45.20;;;;;;5055254;28;20028;-83
2023/10/08 03:32:50;;;;;;;3.35;1.00;;;23.20;44.70;;;;;;5056620;28;20408;-77
2023/10/08 03:35:27;;;;;;;3.90;1.27;;;23.30;44.80;;;;;;5057878;28;20020;-77
2023/10/08 03:38:17;;;;;;;2.97;0.75;;;23.40;44.30;;;;;;5060608;28;20548;-79
2023/10/08 03:40:43;;;;;;;2.92;0.80;;;23.40;44.10;;;;;;5066630;28;20049;-82
2023/10/08 03:43:19;;;;;;;3.40;1.10;;;23.30;44.50;;;;;;5073587;28;20025;-79
2023/10/08 03:45:54;;;;;;;3.75;1.10;;;23.30;44.80;;;;;;5069636;28;20365;-79
2023/10/08 03:48:22;;;;;;;1.52;0.68;;;23.30;44.70;;;;;;5074652;28;20024;-79
2023/10/08 03:50:56;;;;;;;6.32;1.25;;;23.30;44.20;;;;;;5068605;28;20039;-79
2023/10/08 03:53:24;;;;;;;2.45;0.90;;;23.20;44.30;;;;;;5054882;28;20013;-85
2023/10/08 03:55:54;;;;;;;3.53;1.20;;;23.30;44.20;;;;;;5055105;28;20425;-78
2023/10/08 03:58:46;;;;;;;4.18;1.02;;;23.30;44.70;;;;;;5058480;28;20028;-84
2023/10/08 04:01:18;;;;;;;3.25;1.20;;;23.40;44.40;;;;;;5073257;28;20048;-80
2023/10/08 04:06:28;;;;;;;1.67;0.90;;;23.60;43.90;;;;;;5074911;28;20051;-86
2023/10/08 04:09:23;;;;;;;2.45;0.88;;;23.60;44.10;;;;;;5073612;28;20071;-82
2023/10/08 04:12:10;;;;;;;2.10;0.98;;;23.60;44.70;;;;;;5054170;28;20396;-81
2023/10/08 04:14:31;;;;;;;2.20;0.82;;;23.60;44.90;;;;;;5053755;28;20525;-79
2023/10/08 04:16:59;;;;;;;1.73;0.80;;;23.60;45.40;;;;;;5056030;28;20028;-83
2023/10/08 04:19:29;;;;;;;3.28;0.85;;;23.70;45.40;;;;;;5074645;28;20040;-79
2023/10/08 04:21:57;;;;;;;3.20;1.00;;;23.80;45.40;;;;;;5074629;28;20043;-86
2023/10/08 04:24:35;;;;;;;3.53;1.35;;;23.80;45.70;;;;;;5069157;28;20383;-83
2023/10/08 04:27:09;;;;;;;3.28;1.20;;;23.80;46.20;;;;;;5066656;28;20013;-84
2023/10/08 04:29:37;;;;;;;3.70;1.15;;;23.80;46.10;;;;;;5074564;28;20024;-80
2023/10/08 04:32:11;;;;;;;3.53;0.95;;;23.80;46.30;;;;;;5074583;28;20044;-79
2023/10/08 04:34:45;;;;;;;3.47;1.80;;;23.90;46.30;;;;;;5073147;28;20021;-80
2023/10/08 04:37:12;;;;;;;4.18;1.42;;;24.00;46.30;;;;;;5072936;28;20024;-81
2023/10/08 04:39:46;;;;;;;3.22;1.70;;;24.10;45.90;;;;;;5072915;28;20044;-82
2023/10/08 04:42:25;;;;;;;3.13;1.30;;;24.00;46.00;;;;;;5074308;28;20102;-81
2023/10/08 04:44:53;;;;;;;2.78;1.33;;;24.00;46.00;;;;;;5074239;28;20021;-81
2023/10/08 04:47:32;;;;;;;4.22;1.55;;;24.00;45.80;;;;;;5074513;28;20036;-79
2023/10/08 04:50:00;;;;;;;2.85;1.60;;;23.90;45.70;;;;;;5074536;28;20107;-83
2023/10/08 04:52:28;;;;;;;3.03;1.40;;;23.90;45.70;;;;;;5072335;28;20052;-82
2023/10/08 04:54:56;;;;;;;2.67;1.08;;;23.80;45.50;;;;;;5073063;28;20035;-79
2023/10/08 04:57:25;;;;;;;2.15;1.38;;;23.70;45.90;;;;;;5073994;28;20024;-80
2023/10/08 04:59:57;;;;;;;3.33;1.23;;;23.60;46.40;;;;;;5073293;28;20467;-81
2023/10/08 05:02:44;;;;;;;3.55;0.98;;;23.60;46.50;;;;;;5073909;28;20024;-80
2023/10/08 05:15:49;;;;;;;4.53;0.95;;;23.70;46.50;;;;;;5072652;28;20024;-78
2023/10/08 05:26:08;;;;;;;4.80;0.90;;;23.60;45.40;;;;;;5065053;28;20028;-82
2023/10/08 05:31:46;;;;;;;2.40;0.90;;;23.70;45.80;;;;;;5053318;28;20499;-84
2023/10/08 05:39:55;;;;;;;2.78;0.82;;;23.70;45.80;;;;;;5053304;28;20096;-85
2023/10/08 05:42:31;;;;;;;1.45;0.75;;;23.70;45.90;;;;;;5053191;28;20028;-81
2023/10/08 05:47:41;;;;;;;4.28;0.90;;;23.70;45.70;;;;;;5052709;28;20029;-82
2023/10/08 05:55:42;;;;;;;2.65;0.90;;;23.50;45.80;;;;;;5072981;28;20028;-80
2023/10/08 06:03:37;;;;;;;2.13;0.80;;;23.20;46.00;;;;;;5071288;28;20039;-80
2023/10/08 06:10:01;;;;;;;2.15;0.77;;;23.20;46.30;;;;;;5071413;28;20028;-80
2023/10/08 06:12:19;;;;;;;1.13;0.63;;;23.20;46.60;;;;;;5059371;28;20524;-84
2023/10/08 06:15:27;;;;;;;1.38;0.75;;;23.20;46.50;;;;;;5070381;28;20098;-83
2023/10/08 06:17:34;;;;;;;1.33;0.70;;;23.20;46.40;;;;;;5061171;28;20041;-84
2023/10/08 06:20:09;;;;;;;0.65;0.60;;;23.20;45.80;;;;;;5052419;28;20103;-81
2023/10/08 06:22:36;;;;;;;;;;;23.20;46.40;;;;;;5053282;28;20018;-81
2023/10/08 06:25:18;;;;;;;1.42;0.80;;;23.30;46.00;;;;;;5068642;28;19908;-82
2023/10/08 06:27:45;;;;;;;2.08;0.80;;;23.30;45.50;;;;;;5066812;28;20094;-83
2023/10/08 06:30:16;;;;;;;1.88;0.65;;;23.30;44.90;;;;;;5052640;28;20021;-81
2023/10/08 06:32:48;;;;;;;1.27;0.50;;;23.30;44.40;;;;;;5052471;28;20029;-79
2023/10/08 06:35:18;;;;;;;2.35;0.70;;;23.30;43.60;;;;;;5058726;28;20095;-84
2023/10/08 06:37:49;;;;;;;1.67;0.90;;;23.30;44.90;;;;;;5057572;28;20059;-81
2023/10/08 06:43:12;;;;;;;3.35;0.90;;;23.20;44.30;;;;;;5069529;28;20017;-84
2023/10/08 06:45:43;;;;;;;0.98;0.60;;;23.10;44.10;;;;;;5075876;28;20025;-82
2023/10/08 06:48:17;;;;;;;2.55;0.60;;;23.10;44.60;;;;;;5068167;28;20111;-81
2023/10/08 06:50:49;;;;;;;3.13;1.00;;;23.10;44.50;;;;;;5056740;28;20029;-81
2023/10/08 06:53:21;;;;;;;1.85;0.80;;;23.10;44.40;;;;;;5062740;28;20021;-82
2023/10/08 06:55:56;;;;;;;2.28;0.77;;;22.90;45.10;;;;;;5065128;28;20036;-83
2023/10/08 06:58:24;;;;;;;2.17;1.00;;;22.80;45.30;;;;;;5061629;28;20047;-83
2023/10/08 07:00:55;;;;;;;2.17;1.15;;;22.80;46.00;;;;;;5055078;28;20434;-81
2023/10/08 07:03:24;;;;;;;2.30;0.85;;;22.50;46.60;;;;;;5061128;28;20044;-88
2023/10/08 07:05:59;;;;;;;2.63;0.95;;;22.40;47.40;;;;;;5066781;28;20063;-81
2023/10/08 07:08:33;;;;;;;1.73;0.80;;;22.20;48.40;;;;;;5071117;28;20071;-80
2023/10/08 07:11:06;;;;;;;3.35;0.85;;;22.10;48.90;;;;;;5062359;28;20064;-82
2023/10/08 07:13:37;;;;;;;3.00;1.10;;;21.90;49.30;;;;;;5051857;28;20496;-82
2023/10/08 07:16:08;;;;;;;4.05;0.90;;;21.80;49.80;;;;;;5066023;28;20071;-81
2023/10/08 07:18:35;;;;;;;2.83;0.90;;;21.70;50.50;;;;;;5055924;28;20021;-86
2023/10/08 07:21:05;;;;;;;2.53;1.00;;;21.50;50.70;;;;;;5055709;28;20068;-83
2023/10/08 07:23:55;;;;;;;;;;;21.40;50.90;;;;;;5072768;28;20110;-81
2023/10/08 07:26:46;;;;;;;2.30;1.05;;;21.20;51.40;;;;;;5075603;28;19920;-82
2023/10/08 07:29:22;;;;;;;2.22;0.82;;;21.20;52.00;;;;;;5074999;28;20017;-80
2023/10/08 07:31:52;;;;;;;1.70;0.77;;;21.00;52.70;;;;;;5056235;28;20040;-81
2023/10/08 07:36:51;;;;;;;3.15;1.10;;;20.80;53.30;;;;;;5076043;28;20024;-81
2023/10/08 07:41:51;;;;;;;3.33;1.30;;;20.60;53.40;;;;;;5071395;28;20090;-82
2023/10/08 07:44:21;;;;;;;3.50;1.30;;;20.50;53.30;;;;;;5075504;28;20024;-80
2023/10/08 07:46:55;;;;;;;5.20;1.38;;;20.40;53.50;;;;;;5075426;28;20422;-84
2023/10/08 07:49:25;;;;;;;4.35;1.42;;;20.30;53.10;;;;;;5073949;28;20029;-87
2023/10/08 07:51:58;;;;;;;4.18;1.90;;;20.20;53.20;;;;;;5068726;28;20515;-83
2023/10/08 07:54:34;;;;;;;2.55;1.80;;;20.10;53.20;;;;;;5074813;28;20025;-83
2023/10/08 07:57:17;;;;;;;1.83;1.23;;;20.00;53.10;;;;;;5057285;28;20047;-82
2023/10/08 07:59:48;;;;;;;2.13;1.35;;;19.90;52.90;;;;;;5059919;28;20502;-80
2023/10/08 08:02:17;;;;;;;2.80;1.10;;;19.90;52.70;;;;;;5073368;28;20039;-85
2023/10/08 08:04:50;;;;;;;2.38;1.10;;;19.90;52.70;;;;;;5073329;28;20025;-81
2023/10/08 08:07:21;;;;;;;2.60;1.00;;;19.80;52.70;;;;;;5074185;28;20107;-81
2023/10/08 08:09:50;;;;;;;2.60;0.82;;;19.70;52.80;;;;;;5064673;28;20024;-80
2023/10/08 08:12:25;;;;;;;4.95;1.20;;;19.70;53.00;;;;;;5055045;28;20100;-80
2023/10/08 08:14:54;;;;;;;3.28;1.08;;;19.70;52.80;;;;;;5067547;28;20040;-78
2023/10/08 08:17:22;;;;;;;4.82;1.30;;;19.60;52.50;;;;;;5062818;28;20384;-80
2023/10/08 08:19:51;;;;;;;3.22;1.20;;;19.60;52.90;;;;;;5054353;28;20240;-80
2023/10/08 08:22:23;;;;;;;4.40;1.10;;;19.50;53.00;;;;;;5054381;28;20024;-80
2023/10/08 08:27:49;;;;;;;1.98;0.95;;;19.30;53.50;;;;;;5037537;28;20037;-81
2023/10/08 08:30:17;;;;;;;3.53;0.95;;;19.30;53.20;;;;;;5054568;28;20025;-84
2023/10/08 08:32:49;;;;;;;2.15;0.98;;;19.20;53.50;;;;;;5054178;28;20024;-79
2023/10/08 08:35:17;;;;;;;2.83;1.00;;;19.20;53.80;;;;;;5053943;28;20045;-83
2023/10/08 08:37:49;;;;;;;2.92;1.02;;;19.20;53.70;;;;;;5054099;28;20028;-80
2023/10/08 08:40:19;;;;;;;3.78;1.20;;;19.20;53.70;;;;;;5068366;28;20536;-81
2023/10/08 08:42:48;;;;;;;3.17;1.10;;;19.10;54.10;;;;;;5072817;28;20024;-80
2023/10/08 08:45:21;;;;;;;3.38;1.40;;;19.00;54.40;;;;;;5057717;28;20029;-82
2023/10/08 08:47:49;;;;;;;4.57;1.45;;;19.00;54.60;;;;;;5073345;28;20062;-84
2023/10/08 08:50:17;;;;;;;4.10;1.52;;;18.90;54.70;;;;;;5073791;28;20025;-84
2023/10/08 08:52:45;;;;;;;2.60;1.20;;;18.80;55.00;;;;;;5072511;28;20032;-84
2023/10/08 08:55:20;;;;;;;2.92;1.10;;;18.80;55.10;;;;;;5070561;28;20025;-83
2023/10/08 08:57:50;;;;;;;5.60;1.10;;;18.80;55.30;;;;;;5052629;28;20423;-82
2023/10/08 09:00:18;;;;;;;2.13;1.25;;;18.80;55.30;;;;;;5053726;28;20035;-84
2023/10/08 09:02:47;;;;;;;2.05;1.05;;;18.80;55.40;;;;;;5053486;28;20021;-81
2023/10/08 09:05:25;;;;;;;2.22;0.98;;;18.80;55.40;;;;;;5053502;28;20029;-80
2023/10/08 09:07:58;;;;;;;2.92;1.17;;;18.80;55.60;;;;;;5053587;28;20017;-85
2023/10/08 09:10:27;;;;;;;2.38;1.48;;;18.70;55.70;;;;;;5052385;28;20025;-81
2023/10/08 09:12:59;;;;;;;2.97;1.13;;;18.70;56.00;;;;;;5053365;28;20028;-80
2023/10/08 09:15:27;;;;;;;2.05;1.10;;;18.70;56.20;;;;;;5053521;28;20127;-81
2023/10/08 09:18:04;;;;;;;5.45;1.45;;;18.60;56.30;;;;;;5052629;28;20134;-80
2023/10/08 09:20:35;;;;;;;2.47;1.10;;;18.60;56.20;;;;;;5054552;28;20506;-80
2023/10/08 09:23:14;;;;;;;1.90;1.10;;;18.60;56.20;;;;;;5057493;28;20025;-82
2023/10/08 09:25:43;;;;;;;2.90;1.20;;;18.60;56.40;;;;;;5051116;28;20064;-82
2023/10/08 09:28:15;;;;;;;3.83;1.38;;;18.50;56.30;;;;;;5053620;28;20077;-81
2023/10/08 09:30:44;;;;;;;2.88;1.10;;;18.50;56.50;;;;;;5067926;28;20376;-83
2023/10/08 09:33:13;;;;;;;2.60;1.20;;;18.50;56.30;;;;;;5088205;28;20060;-85
2023/10/08 09:35:43;;;;;;;3.05;1.45;;;18.40;56.70;;;;;;5068621;28;20043;-82
2023/10/08 09:38:11;;;;;;;2.72;1.10;;;18.40;56.60;;;;;;5058265;28;20037;-80
2023/10/08 09:40:44;;;;;;;3.25;1.25;;;18.40;56.50;;;;;;5056773;28;20126;-82
2023/10/08 09:43:16;;;;;;;2.20;0.82;;;18.40;56.60;;;;;;5067051;28;20044;-80
2023/10/08 09:45:48;;;;;;;3.90;1.10;;;18.30;56.80;;;;;;5066000;28;20035;-82
2023/10/08 09:48:19;;;;;;;2.15;1.17;;;18.30;57.20;;;;;;5068397;28;20020;-81
2023/10/08 09:50:51;;;;;;;2.95;1.08;;;18.30;57.20;;;;;;5058205;28;20416;-80
2023/10/08 09:53:24;;;;;;;2.53;1.05;;;18.30;57.20;;;;;;5070539;28;20025;-87
2023/10/08 09:55:55;;;;;;;3.30;1.02;;;18.30;57.20;;;;;;5066473;28;20021;-82
2023/10/08 09:58:28;;;;;;;5.97;1.23;;;18.30;56.80;;;;;;5067153;28;20032;-80
2023/10/08 10:00:57;;;;;;;2.00;0.88;;;18.30;57.00;;;;;;5069444;28;20039;-87
2023/10/08 10:03:26;;;;;;;2.05;0.88;;;18.20;56.90;;;;;;5070387;28;20020;-81
2023/10/08 10:05:58;;;;;;;1.17;0.70;;;18.20;56.80;;;;;;5064925;28;20375;-82
2023/10/08 10:08:28;;;;;;;1.17;0.70;;;18.20;57.00;;;;;;5069441;28;20121;-84
2023/10/08 10:11:02;;;;;;;3.15;0.80;;;18.20;57.10;;;;;;5071022;28;20025;-80
2023/10/08 10:13:51;;;;;;;2.38;0.85;;;18.20;57.60;;;;;;5067638;28;20020;-80
2023/10/08 10:16:24;;;;;;;2.25;1.10;;;18.20;57.70;;;;;;5061679;28;20123;-81
2023/10/08 10:18:57;;;;;;;2.67;1.20;;;18.20;57.50;;;;;;5070126;28;20430;-81
2023/10/08 10:21:32;;;;;;;6.00;1.23;;;18.20;57.40;;;;;;5060370;28;20037;-85
2023/10/08 10:24:00;;;;;;;6.35;1.00;;;18.20;57.10;;;;;;5061418;28;20020;-80
2023/10/08 10:26:40;;;;;;;1.88;0.60;;;18.20;57.00;;;;;;5065035;28;20039;-82
2023/10/08 10:29:19;;;;;;;2.20;1.00;;;18.20;57.20;;;;;;5059927;28;20036;-81
2023/10/08 10:31:54;;;;;;;2.00;1.00;;;18.20;57.30;;;;;;5065752;28;20040;-84
2023/10/08 10:34:30;;;;;;;1.98;0.95;;;18.10;57.60;;;;;;5067949;28;20028;-81
2023/10/08 10:37:02;;;;;;;2.90;0.98;;;18.10;57.70;;;;;;5068075;28;20131;-81
2023/10/08 10:39:32;;;;;;;6.25;0.80;;;18.10;57.70;;;;;;5067850;28;20140;-80
2023/10/08 10:42:01;;;;;;;1.15;0.77;;;18.10;57.70;;;;;;5053697;28;20052;-82
2023/10/08 10:44:32;;;;;;;4.35;0.93;;;18.10;57.70;;;;;;5067991;28;20383;-81
2023/10/08 10:49:54;;;;;;;3.75;1.00;;;18.00;57.80;;;;;;5061829;28;20025;-83
2023/10/08 10:52:32;;;;;;;2.28;0.90;;;18.00;57.40;;;;;;5062983;28;20028;-86
2023/10/08 10:57:56;;;;;;;2.28;0.75;;;18.00;57.40;;;;;;5067095;28;20025;-79
2023/10/08 11:03:04;;;;;;;1.10;0.75;;;17.90;58.00;;;;;;5067686;28;20033;-81
2023/10/08 11:05:39;;;;;;;4.95;0.80;;;17.90;58.20;;;;;;5072537;28;20507;-87
2023/10/08 11:08:08;;;;;;;3.00;0.93;;;17.80;58.10;;;;;;5063605;28;20032;-82
2023/10/08 11:10:38;;;;;;;3.30;1.00;;;17.80;58.60;;;;;;5062937;28;20029;-80
2023/10/08 11:13:14;;;;;;;3.45;0.75;;;17.90;58.40;;;;;;5070814;28;20025;-81
2023/10/08 11:15:48;;;;;;;2.13;0.80;;;17.80;58.30;;;;;;5070751;28;20423;-81
2023/10/08 11:18:17;;;;;;;3.35;0.82;;;17.80;58.30;;;;;;5069436;28;20029;-82
2023/10/08 11:20:46;;;;;;;4.38;0.90;;;17.80;58.60;;;;;;5071228;28;20040;-80
2023/10/08 11:23:36;;;;;;;4.20;1.75;;;17.80;59.10;;;;;;5055597;28;20036;-80
2023/10/08 11:26:07;;;;;;;2.47;1.13;;;17.70;59.00;;;;;;5072984;28;20376;-82
2023/10/08 11:29:00;;;;;;;5.95;1.50;;;17.80;59.30;;;;;;5068645;28;20391;-87
2023/10/08 11:31:27;;;;;;;2.65;1.10;;;17.80;59.00;;;;;;5072311;28;20067;-87
2023/10/08 11:34:00;;;;;;;2.90;1.05;;;17.70;59.20;;;;;;5062607;28;20036;-86
2023/10/08 11:36:29;;;;;;;3.83;1.00;;;17.70;59.00;;;;;;5067675;28;20488;-88
2023/10/08 11:39:01;;;;;;;2.72;1.10;;;17.70;59.10;;;;;;5058668;28;20507;-86
2023/10/08 11:41:29;;;;;;;4.70;1.00;;;17.60;59.50;;;;;;5056268;28;20071;-82
2023/10/08 11:43:58;;;;;;;2.20;0.80;;;17.50;60.20;;;;;;5072343;28;20020;-87
2023/10/08 11:46:38;;;;;;;3.20;1.15;;;17.50;59.90;;;;;;5064259;28;20072;-87
2023/10/08 11:49:17;;;;;;;3.05;1.20;;;17.50;60.10;;;;;;5054618;28;20084;-81
2023/10/08 11:51:46;;;;;;;4.53;1.10;;;17.50;60.10;;;;;;5059466;28;20430;-83
2023/10/08 11:54:14;;;;;;;2.88;1.10;;;17.40;60.20;;;;;;5065254;28;20023;-85
2023/10/08 11:56:42;;;;;;;4.80;1.20;;;17.30;60.40;;;;;;5064385;28;20032;-82
2023/10/08 11:59:09;;;;;;;4.40;1.20;;;17.20;60.90;;;;;;5061506;28;20538;-84
2023/10/08 12:01:41;;;;;;;3.92;1.25;;;17.20;61.70;;;;;;5056096;28;20063;-81
2023/10/08 12:04:15;;;;;;;4.07;1.10;;;17.10;61.50;;;;;;5054138;28;20072;-83
2023/10/08 12:06:46;;;;;;;3.88;1.10;;;17.20;61.60;;;;;;5061293;28;20093;-81
2023/10/08 12:09:15;;;;;;;2.78;1.10;;;17.10;61.30;;;;;;5058118;28;20426;-80
2023/10/08 12:11:43;;;;;;;3.75;1.23;;;17.00;61.50;;;;;;5067475;28;20108;-80
2023/10/08 12:14:12;;;;;;;3.13;1.10;;;17.00;61.70;;;;;;5067050;28;20082;-80
2023/10/08 12:16:41;;;;;;;3.45;1.40;;;17.00;61.60;;;;;;5072279;28;20059;-84
2023/10/08 12:19:18;;;;;;;4.47;1.23;;;17.00;61.60;;;;;;5072861;28;20111;-82
2023/10/08 12:21:49;;;;;;;2.40;1.20;;;16.90;62.20;;;;;;5071418;28;20491;-86
2023/10/08 12:24:17;;;;;;;5.28;1.40;;;16.90;62.50;;;;;;5065743;28;20024;-82
2023/10/08 12:26:49;;;;;;;2.55;1.08;;;16.90;62.10;;;;;;5066376;28;20480;-81
2023/10/08 12:29:21;;;;;;;3.25;1.02;;;16.90;62.00;;;;;;5071302;28;20098;-81
2023/10/08 12:31:53;;;;;;;4.63;1.25;;;16.90;62.30;;;;;;5061000;28;20033;-80
2023/10/08 12:34:22;;;;;;;2.38;0.90;;;16.80;62.40;;;;;;5066377;28;20037;-80
2023/10/08 12:36:50;;;;;;;3.72;1.00;;;16.80;62.40;;;;;;5070679;28;20037;-85
2023/10/08 12:39:17;;;;;;;3.65;1.50;;;16.80;62.00;;;;;;5071578;28;20072;-85
2023/10/08 12:41:45;;;;;;;4.70;1.13;;;16.80;62.40;;;;;;5062817;28;20036;-84
2023/10/08 12:44:15;;;;;;;4.00;1.40;;;16.80;62.30;;;;;;5067888;28;20455;-84
2023/10/08 12:46:43;;;;;;;3.58;1.17;;;16.80;62.40;;;;;;5064911;28;20024;-81
2023/10/08 12:49:11;;;;;;;2.97;1.30;;;16.70;62.80;;;;;;5067213;28;20027;-79
2023/10/08 12:51:41;;;;;;;2.97;1.25;;;16.70;63.10;;;;;;5057979;28;20543;-80
2023/10/08 12:54:10;;;;;;;4.80;1.20;;;16.60;63.00;;;;;;5058007;28;20029;-80
2023/10/08 12:56:44;;;;;;;3.40;1.50;;;16.50;63.00;;;;;;5063032;28;20036;-81
2023/10/08 12:59:20;;;;;;;1.58;1.10;;;16.50;63.40;;;;;;5059241;28;20017;-86
2023/10/08 13:01:51;;;;;;;;;;;16.40;64.20;;;;;;5053139;28;20037;-81
2023/10/08 13:04:34;;;;;;;3.03;1.30;;;16.30;64.20;;;;;;5065750;28;19920;-86
2023/10/08 13:07:02;;;;;;;1.63;0.90;;;16.30;64.10;;;;;;5070519;28;20032;-80
2023/10/08 13:09:37;;;;;;;1.95;1.10;;;16.30;64.40;;;;;;5064888;28;20078;-81
2023/10/08 13:12:05;;;;;;;2.63;1.17;;;16.30;64.30;;;;;;5070431;28;20032;-79
2023/10/08 13:14:34;;;;;;;4.10;1.50;;;16.20;64.30;;;;;;5064463;28;20103;-82
2023/10/08 13:17:02;;;;;;;2.30;1.23;;;16.20;64.90;;;;;;5064939;28;20082;-87
2023/10/08 13:19:33;;;;;;;3.20;1.45;;;16.10;64.90;;;;;;5064779;28;20024;-82
2023/10/08 13:22:01;;;;;;;3.13;1.15;;;16.20;65.10;;;;;;5067796;28;20467;-85
2023/10/08 13:24:29;;;;;;;2.75;1.30;;;16.20;64.90;;;;;;5070407;28;20138;-86
2023/10/08 13:26:58;;;;;;;3.70;1.63;;;16.10;65.20;;;;;;5066439;28;20380;-86
2023/10/08 13:29:32;;;;;;;3.42;1.08;;;16.20;65.70;;;;;;5072046;28;20019;-87
2023/10/08 13:32:00;;;;;;;6.00;1.40;;;16.10;65.10;;;;;;5063807;28;20062;-85
2023/10/08 13:34:27;;;;;;;3.13;0.98;;;16.00;65.20;;;;;;5062764;28;20017;-81
2023/10/08 13:36:56;;;;;;;2.20;1.13;;;15.90;65.60;;;;;;5064124;28;20109;-80
2023/10/08 13:39:23;;;;;;;3.78;0.98;;;15.90;66.10;;;;;;5066631;28;20103;-84
2023/10/08 13:41:52;;;;;;;3.88;1.20;;;15.80;66.30;;;;;;5069132;28;20111;-86
2023/10/08 13:44:28;;;;;;;2.92;0.98;;;15.80;66.30;;;;;;5065031;28;20597;-81
2023/10/08 13:46:58;;;;;;;3.22;1.10;;;15.80;66.70;;;;;;5069483;28;20043;-79
2023/10/08 13:49:32;;;;;;;6.65;1.30;;;15.90;66.90;;;;;;5068332;28;20119;-86
2023/10/08 13:51:59;;;;;;;1.38;0.98;;;15.80;67.10;;;;;;5061386;28;20021;-82
2023/10/08 13:54:29;;;;;;;6.63;1.20;;;15.80;67.20;;;;;;5070590;28;20074;-81
2023/10/08 13:56:57;;;;;;;3.78;1.17;;;15.80;67.40;;;;;;5069705;28;20522;-79
2023/10/08 13:59:25;;;;;;;2.80;1.20;;;15.80;67.30;;;;;;5072941;28;20372;-85
2023/10/08 14:01:54;;;;;;;4.95;1.50;;;15.70;67.50;;;;;;5065510;28;20068;-86
2023/10/08 14:04:34;;;;;;;2.83;1.05;;;15.70;67.80;;;;;;5065695;28;20043;-81
2023/10/08 14:07:04;;;;;;;2.95;1.00;;;15.70;68.20;;;;;;5069358;28;20028;-86
2023/10/08 14:09:31;;;;;;;4.10;1.60;;;15.70;68.10;;;;;;5061089;28;20074;-80
2023/10/08 14:11:59;;;;;;;1.83;1.00;;;15.70;68.10;;;;;;5071912;28;20078;-80
2023/10/08 14:14:29;;;;;;;2.28;0.90;;;15.70;68.50;;;;;;5071002;28;20111;-83
2023/10/08 14:17:03;;;;;;;2.05;0.90;;;15.70;68.80;;;;;;5069734;28;20155;-81
2023/10/08 14:19:43;;;;;;;3.28;1.08;;;15.70;68.80;;;;;;5065490;28;20502;-82
2023/10/08 14:22:13;;;;;;;2.45;1.00;;;15.70;69.00;;;;;;5065486;28;20036;-79
2023/10/08 14:24:41;;;;;;;4.10;1.23;;;15.70;69.00;;;;;;5073938;28;20036;-80
2023/10/08 14:27:14;;;;;;;3.72;1.00;;;15.70;69.10;;;;;;5076816;28;20479;-86